Time;durP1;ratioP1;P1;durP2;ratioP2;P2;SDS_P1;SDS_P2;PMS_P1;PMS_P2;Temp;Humidity;BMP_temperature;BMP_pressure;BME280_temperature;BME280_humidity;BME280_pressure;Samples;Min_cycle;Max_cycle;Signal;HPM_P1;HPM_P2
2023/09/13 00:00:49;;;;;;;13.43;12.23;;;18.40;99.90;;;;;;5082461;28;20422;-68
2023/09/13 00:03:16;;;;;;;13.90;12.60;;;18.40;99.90;;;;;;5080572;28;20430;-69
2023/09/13 00:05:43;;;;;;;13.90;12.70;;;18.40;99.90;;;;;;5089745;28;20405;-69
2023/09/13 00:08:10;;;;;;;15.25;13.85;;;18.40;99.90;;;;;;5086227;28;20431;-70
2023/09/13 00:10:37;;;;;;;16.55;15.10;;;18.40;99.90;;;;;;5099002;28;20414;-69
2023/09/13 00:13:03;;;;;;;17.05;15.55;;;18.50;99.90;;;;;;5097412;28;20423;-68
2023/09/13 00:15:30;;;;;;;17.98;16.10;;;18.40;99.90;;;;;;5093059;28;20421;-68
2023/09/13 00:17:58;;;;;;;20.83;18.73;;;18.40;99.90;;;;;;5071886;28;20415;-69
2023/09/13 00:20:27;;;;;;;20.73;18.63;;;18.40;99.90;;;;;;5087739;28;20406;-67
2023/09/13 00:22:54;;;;;;;22.10;19.90;;;18.30;99.90;;;;;;5084856;28;20699;-68
2023/09/13 00:25:21;;;;;;;22.30;20.00;;;18.30;99.90;;;;;;5080461;28;20411;-68
2023/09/13 00:27:47;;;;;;;21.83;19.63;;;18.20;99.90;;;;;;5078610;28;20423;-69
2023/09/13 00:30:14;;;;;;;21.95;19.95;;;18.20;99.90;;;;;;5085659;28;20417;-68
2023/09/13 00:32:41;;;;;;;21.60;19.50;;;18.10;99.90;;;;;;5069062;28;20914;-68
2023/09/13 00:35:09;;;;;;;22.73;20.43;;;18.10;99.90;;;;;;5082978;28;20406;-70
2023/09/13 00:37:36;;;;;;;22.48;20.17;;;18.10;99.90;;;;;;5084353;28;20407;-68
2023/09/13 00:40:05;;;;;;;21.73;19.52;;;18.10;99.90;;;;;;5069437;28;20414;-69
2023/09/13 00:42:32;;;;;;;21.85;19.55;;;18.10;99.90;;;;;;5085352;28;20419;-68
2023/09/13 00:44:58;;;;;;;22.98;20.58;;;18.20;99.90;;;;;;5076272;28;20601;-70
2023/09/13 00:47:25;;;;;;;21.98;19.40;;;18.10;99.90;;;;;;5078398;28;20431;-68
2023/09/13 00:49:52;;;;;;;20.67;18.77;;;18.20;99.90;;;;;;5088328;28;20424;-68
2023/09/13 00:52:21;;;;;;;20.73;18.80;;;18.20;99.90;;;;;;5072914;28;20458;-68
2023/09/13 00:54:47;;;;;;;20.13;18.10;;;18.20;99.90;;;;;;5084602;28;20891;-68
2023/09/13 00:57:15;;;;;;;20.23;18.17;;;18.20;99.90;;;;;;5085426;28;20414;-67
2023/09/13 00:59:41;;;;;;;19.60;17.60;;;18.20;99.90;;;;;;5096137;28;20437;-67
2023/09/13 01:02:08;;;;;;;20.27;18.23;;;18.10;99.90;;;;;;5093759;28;20429;-69
2023/09/13 01:04:36;;;;;;;18.95;17.05;;;18.20;99.90;;;;;;5090085;28;20447;-68
2023/09/13 01:07:03;;;;;;;19.47;17.47;;;18.10;99.90;;;;;;5076553;28;20494;-68
2023/09/13 01:09:31;;;;;;;18.13;16.43;;;18.10;99.90;;;;;;5076667;28;20548;-68
2023/09/13 01:11:57;;;;;;;18.85;17.05;;;18.10;99.90;;;;;;5085385;28;20410;-68
2023/09/13 01:14:24;;;;;;;18.70;16.80;;;18.10;99.90;;;;;;5067204;28;20923;-69
2023/09/13 01:17:01;;;;;;;17.05;15.45;;;18.10;99.90;;;;;;5070905;28;20454;-68
2023/09/13 01:19:47;;;;;;;17.40;15.73;;;18.10;99.90;;;;;;5077055;28;20431;-68
2023/09/13 01:22:38;;;;;;;17.83;16.13;;;18.10;99.90;;;;;;5063793;28;20411;-70
2023/09/13 01:25:36;;;;;;;18.40;16.60;;;18.10;99.90;;;;;;5070096;28;20910;-68
2023/09/13 01:28:13;;;;;;;19.00;16.90;;;18.10;99.90;;;;;;5060453;28;20409;-70
2023/09/13 01:30:43;;;;;;;18.98;17.08;;;18.10;99.90;;;;;;5070165;28;20428;-69
2023/09/13 01:33:10;;;;;;;18.45;16.55;;;18.10;99.90;;;;;;5072752;28;20572;-71
2023/09/13 01:35:37;;;;;;;19.97;17.97;;;18.00;99.90;;;;;;5076386;28;20429;-69
2023/09/13 01:38:04;;;;;;;19.70;17.70;;;18.00;99.90;;;;;;5072000;28;20412;-69
2023/09/13 01:40:36;;;;;;;20.17;18.10;;;18.00;99.90;;;;;;5077246;28;20423;-69
2023/09/13 01:43:04;;;;;;;20.70;18.60;;;18.00;99.90;;;;;;5067983;28;20398;-70
2023/09/13 01:45:33;;;;;;;22.10;18.80;;;18.00;99.90;;;;;;5073487;28;20925;-69
2023/09/13 01:48:02;;;;;;;21.23;18.92;;;18.00;99.90;;;;;;5064591;28;20419;-70
2023/09/13 01:50:30;;;;;;;21.38;19.17;;;18.00;99.90;;;;;;5078106;28;20404;-70
2023/09/13 01:52:57;;;;;;;21.50;19.23;;;18.10;99.90;;;;;;5080844;28;20418;-69
2023/09/13 01:55:24;;;;;;;22.20;19.80;;;18.10;99.90;;;;;;5068747;28;20418;-67
2023/09/13 01:57:50;;;;;;;23.15;20.75;;;18.10;99.90;;;;;;5086565;28;20414;-68
2023/09/13 02:00:18;;;;;;;22.90;20.60;;;18.10;99.90;;;;;;5069493;28;20940;-69
2023/09/13 02:02:45;;;;;;;23.50;20.90;;;18.10;99.90;;;;;;5066653;28;20441;-67
2023/09/13 02:05:13;;;;;;;23.30;20.90;;;18.10;99.90;;;;;;5078122;28;20774;-70
2023/09/13 02:07:39;;;;;;;25.90;20.73;;;18.10;99.90;;;;;;5080818;28;20436;-70
2023/09/13 02:10:07;;;;;;;23.57;21.17;;;18.10;99.90;;;;;;5086048;28;20417;-70
2023/09/13 02:12:34;;;;;;;23.80;21.30;;;18.10;99.90;;;;;;5079557;28;20439;-68
2023/09/13 02:15:01;;;;;;;24.08;21.77;;;18.20;99.90;;;;;;5062967;28;20436;-70
2023/09/13 02:17:27;;;;;;;23.90;21.40;;;18.20;99.90;;;;;;5082077;22;20435;-70
2023/09/13 02:19:54;;;;;;;24.65;22.05;;;18.20;99.90;;;;;;5062207;28;20471;-70
2023/09/13 02:22:22;;;;;;;24.38;21.65;;;18.20;99.90;;;;;;5063723;28;20542;-70
2023/09/13 02:24:49;;;;;;;24.50;21.90;;;18.20;99.90;;;;;;5064737;28;20506;-70
2023/09/13 02:27:15;;;;;;;24.65;22.05;;;18.20;99.90;;;;;;5061683;28;20446;-70
2023/09/13 02:29:42;;;;;;;24.98;22.38;;;18.20;99.90;;;;;;5061341;28;20801;-69
2023/09/13 02:32:09;;;;;;;23.97;21.57;;;18.20;99.90;;;;;;5063981;28;20424;-71
2023/09/13 02:34:36;;;;;;;25.40;22.70;;;18.30;99.90;;;;;;5064407;28;20648;-71
2023/09/13 02:37:02;;;;;;;24.10;21.70;;;18.30;99.90;;;;;;5061374;28;20439;-71
2023/09/13 02:39:35;;;;;;;22.95;20.40;;;18.30;99.90;;;;;;5064462;28;20751;-71
2023/09/13 02:42:02;;;;;;;23.95;21.42;;;18.30;99.90;;;;;;5059072;28;20412;-71
2023/09/13 02:44:30;;;;;;;24.40;21.90;;;18.30;99.90;;;;;;5059725;28;20904;-71
2023/09/13 02:46:56;;;;;;;25.92;23.23;;;18.30;99.90;;;;;;5059583;28;20485;-70
2023/09/13 02:49:24;;;;;;;24.38;21.90;;;18.40;99.90;;;;;;5064247;28;20422;-70
2023/09/13 02:51:51;;;;;;;26.57;23.87;;;18.30;99.90;;;;;;5063783;28;20484;-71
2023/09/13 02:54:18;;;;;;;25.92;23.42;;;18.30;99.90;;;;;;5061692;28;20428;-71
2023/09/13 02:56:47;;;;;;;26.40;23.60;;;18.40;99.90;;;;;;5062739;28;20865;-71
2023/09/13 02:59:14;;;;;;;27.35;24.55;;;18.40;99.90;;;;;;5058579;28;20774;-72
2023/09/13 03:01:42;;;;;;;27.53;24.73;;;18.40;99.90;;;;;;5059884;28;20442;-71
2023/09/13 03:04:09;;;;;;;27.52;24.58;;;18.40;99.90;;;;;;5063646;28;20435;-71
2023/09/13 03:06:35;;;;;;;28.52;24.30;;;18.40;99.90;;;;;;5063051;28;20931;-71
2023/09/13 03:09:02;;;;;;;28.55;25.60;;;18.50;99.90;;;;;;5055102;28;20423;-72
2023/09/13 03:11:29;;;;;;;27.92;24.92;;;18.50;99.90;;;;;;5063165;28;20408;-72
2023/09/13 03:13:57;;;;;;;30.27;27.08;;;18.50;99.90;;;;;;5059257;28;20435;-71
2023/09/13 03:16:24;;;;;;;30.63;27.00;;;18.50;99.90;;;;;;5059224;28;20440;-70
2023/09/13 03:18:52;;;;;;;31.60;26.95;;;18.50;99.90;;;;;;5051690;28;20433;-71
2023/09/13 03:21:20;;;;;;;30.02;26.67;;;18.50;99.90;;;;;;5056317;28;20417;-71
2023/09/13 03:23:48;;;;;;;31.42;28.13;;;18.50;99.90;;;;;;5060477;28;20979;-71
2023/09/13 03:26:17;;;;;;;31.63;28.23;;;18.60;99.90;;;;;;5050671;28;20429;-71
2023/09/13 03:28:45;;;;;;;32.60;29.08;;;18.60;99.90;;;;;;5047119;28;21089;-71
2023/09/13 03:31:16;;;;;;;32.67;29.08;;;18.60;99.90;;;;;;5047186;28;20425;-71
2023/09/13 03:33:43;;;;;;;34.90;30.88;;;18.60;99.90;;;;;;5053868;28;20436;-71
2023/09/13 03:36:11;;;;;;;36.70;31.23;;;18.60;99.90;;;;;;5054032;28;20539;-71
2023/09/13 03:38:40;;;;;;;36.75;30.35;;;18.60;99.90;;;;;;5046644;28;20420;-71
2023/09/13 03:41:07;;;;;;;38.30;32.92;;;18.60;99.90;;;;;;5050234;28;20422;-72
2023/09/13 03:43:34;;;;;;;48.08;36.22;;;18.60;99.90;;;;;;5044947;28;20529;-71
2023/09/13 03:46:02;;;;;;;54.00;38.23;;;18.60;99.90;;;;;;5057787;28;20413;-71
2023/09/13 03:48:32;;;;;;;54.38;39.20;;;18.40;99.90;;;;;;5050281;28;20527;-72
2023/09/13 03:50:58;;;;;;;57.00;38.95;;;18.40;99.90;;;;;;5058386;28;20412;-71
2023/09/13 03:53:25;;;;;;;61.25;40.63;;;18.20;99.90;;;;;;5053689;28;20543;-71
2023/09/13 03:55:52;;;;;;;65.40;40.78;;;18.20;99.90;;;;;;5052845;28;20926;-71
2023/09/13 03:58:20;;;;;;;66.22;42.22;;;18.20;99.90;;;;;;5054715;28;20623;-69
2023/09/13 04:00:46;;;;;;;64.45;42.00;;;18.20;99.90;;;;;;5048189;28;20436;-71
2023/09/13 04:03:14;;;;;;;65.30;41.45;;;18.20;99.90;;;;;;5048610;28;20459;-70
2023/09/13 04:05:42;;;;;;;67.65;43.53;;;18.20;99.90;;;;;;5044986;28;20428;-72
2023/09/13 04:08:08;;;;;;;65.18;42.90;;;18.10;99.90;;;;;;5046622;28;20413;-70
2023/09/13 04:10:36;;;;;;;68.82;42.17;;;18.10;99.90;;;;;;5044791;28;20450;-72
2023/09/13 04:13:02;;;;;;;69.70;43.95;;;18.10;99.90;;;;;;5041394;28;20466;-71
2023/09/13 04:15:29;;;;;;;67.65;43.63;;;18.10;99.90;;;;;;5039223;28;20461;-69
2023/09/13 04:17:56;;;;;;;76.55;46.05;;;18.10;99.90;;;;;;5061052;28;20526;-70
2023/09/13 04:20:23;;;;;;;77.75;47.67;;;18.10;99.90;;;;;;5066274;28;20520;-71
2023/09/13 04:22:51;;;;;;;79.18;47.10;;;18.10;99.90;;;;;;5065884;28;20428;-70
2023/09/13 04:25:18;;;;;;;81.57;47.20;;;18.10;99.90;;;;;;5063323;28;20505;-70
2023/09/13 04:27:46;;;;;;;83.13;48.25;;;18.10;99.90;;;;;;5066753;28;20477;-74
2023/09/13 04:30:13;;;;;;;82.00;47.25;;;18.00;99.90;;;;;;5061090;28;20920;-73
2023/09/13 04:32:40;;;;;;;84.25;48.60;;;18.00;99.90;;;;;;5064920;28;20432;-73
2023/09/13 04:35:08;;;;;;;88.15;49.85;;;18.00;99.90;;;;;;5066391;28;20431;-73
2023/09/13 04:37:35;;;;;;;89.53;50.40;;;18.00;99.90;;;;;;5062390;28;20556;-74
2023/09/13 04:40:05;;;;;;;90.60;51.70;;;18.00;99.90;;;;;;5061211;28;20769;-74
2023/09/13 04:42:36;;;;;;;85.90;51.17;;;18.10;99.90;;;;;;5062737;28;20432;-74
2023/09/13 04:45:04;;;;;;;86.45;50.72;;;18.10;99.90;;;;;;5058308;28;20435;-74
2023/09/13 04:47:30;;;;;;;90.88;52.42;;;18.10;99.90;;;;;;5073521;28;20429;-74
2023/09/13 04:49:57;;;;;;;81.40;51.50;;;18.00;99.90;;;;;;5062507;28;20447;-73
2023/09/13 04:52:24;;;;;;;80.80;50.67;;;18.00;99.90;;;;;;5063770;28;20436;-70
2023/09/13 04:54:51;;;;;;;80.80;50.03;;;18.00;99.90;;;;;;5056758;28;20429;-68
2023/09/13 04:57:19;;;;;;;75.07;49.05;;;17.90;99.90;;;;;;5063536;28;20471;-68
2023/09/13 04:59:48;;;;;;;73.43;49.13;;;17.90;99.90;;;;;;5064237;28;20454;-68
2023/09/13 05:02:15;;;;;;;75.90;49.95;;;17.90;99.90;;;;;;5058035;28;20938;-76
2023/09/13 05:04:42;;;;;;;78.20;49.00;;;17.90;99.90;;;;;;5065997;28;20892;-77
2023/09/13 05:07:09;;;;;;;78.22;48.80;;;17.80;99.90;;;;;;5064184;28;20928;-75
2023/09/13 05:09:37;;;;;;;75.75;49.30;;;17.80;99.90;;;;;;5062943;28;20455;-76
2023/09/13 05:12:04;;;;;;;71.63;48.72;;;17.80;99.90;;;;;;5060881;28;20893;-76
2023/09/13 05:14:33;;;;;;;75.43;47.55;;;17.70;99.90;;;;;;5064833;28;20446;-76
2023/09/13 05:17:00;;;;;;;70.40;46.22;;;17.70;99.90;;;;;;5059342;28;20454;-74
2023/09/13 05:19:27;;;;;;;71.20;47.80;;;17.70;99.90;;;;;;5066118;28;20495;-74
2023/09/13 05:21:53;;;;;;;71.25;46.88;;;17.70;99.90;;;;;;5066661;28;20430;-76
2023/09/13 05:24:20;;;;;;;72.32;47.00;;;17.70;99.90;;;;;;5064451;28;20439;-75
2023/09/13 05:26:47;;;;;;;73.60;46.67;;;17.70;99.90;;;;;;5063589;28;20435;-76
2023/09/13 05:29:13;;;;;;;67.50;44.80;;;17.70;99.90;;;;;;5065447;28;20427;-75
2023/09/13 05:31:42;;;;;;;66.28;44.28;;;17.70;99.90;;;;;;5062803;28;20443;-75
2023/09/13 05:34:08;;;;;;;60.10;42.50;;;17.70;99.90;;;;;;5063551;28;20770;-75
2023/09/13 05:36:35;;;;;;;61.47;43.45;;;17.70;99.90;;;;;;5065937;28;20861;-77
2023/09/13 05:39:03;;;;;;;62.43;42.90;;;17.70;99.90;;;;;;5065447;28;20435;-76
2023/09/13 05:41:29;;;;;;;56.55;40.03;;;17.70;99.90;;;;;;5061553;28;20508;-76
2023/09/13 05:43:56;;;;;;;52.47;40.53;;;17.70;99.90;;;;;;5065369;28;20412;-76
2023/09/13 05:46:23;;;;;;;50.30;37.80;;;17.70;99.90;;;;;;5064598;28;20530;-76
2023/09/13 05:48:51;;;;;;;53.17;38.13;;;17.70;99.90;;;;;;5064279;28;20858;-75
2023/09/13 05:51:19;;;;;;;51.85;37.65;;;17.70;99.90;;;;;;5059011;28;20530;-76
2023/09/13 05:53:46;;;;;;;47.15;36.17;;;17.70;99.90;;;;;;5063772;28;21021;-76
2023/09/13 05:56:13;;;;;;;50.83;35.85;;;17.70;99.90;;;;;;5063412;28;20872;-76
2023/09/13 05:58:43;;;;;;;45.90;35.08;;;17.70;99.90;;;;;;5063790;28;20450;-76
2023/09/13 06:01:10;;;;;;;42.13;33.80;;;17.70;99.90;;;;;;5064929;28;20896;-76
2023/09/13 06:03:36;;;;;;;37.25;32.78;;;17.70;99.90;;;;;;5063880;28;20519;-76
2023/09/13 06:06:05;;;;;;;36.00;31.67;;;17.70;99.90;;;;;;5058318;28;20436;-76
2023/09/13 06:08:31;;;;;;;34.50;30.60;;;17.70;99.90;;;;;;5060159;28;20481;-76
2023/09/13 06:10:58;;;;;;;33.65;29.65;;;17.80;99.90;;;;;;5067383;28;20437;-76
2023/09/13 06:13:25;;;;;;;31.90;28.50;;;17.80;99.90;;;;;;5071641;28;20494;-76
2023/09/13 06:15:51;;;;;;;31.48;28.27;;;17.90;99.90;;;;;;5064364;28;20908;-77
2023/09/13 06:18:18;;;;;;;29.50;26.35;;;18.00;99.90;;;;;;5063491;28;20435;-77
2023/09/13 06:20:45;;;;;;;28.10;25.20;;;18.00;99.90;;;;;;5073321;28;20790;-77
2023/09/13 06:23:34;;;;;;;28.15;25.35;;;18.10;99.90;;;;;;5061642;28;20510;-76
2023/09/13 06:26:01;;;;;;;28.00;25.10;;;18.10;99.90;;;;;;5064278;28;20896;-76
2023/09/13 06:28:28;;;;;;;26.97;24.07;;;18.10;99.90;;;;;;5062595;28;20435;-77
2023/09/13 06:30:56;;;;;;;27.80;25.20;;;18.10;99.90;;;;;;5062519;28;20753;-77
2023/09/13 06:33:23;;;;;;;27.02;24.42;;;18.10;99.90;;;;;;5063835;28;20880;-77
2023/09/13 06:35:50;;;;;;;25.50;22.90;;;18.10;99.90;;;;;;5063163;28;20688;-77
2023/09/13 06:38:18;;;;;;;27.85;25.25;;;18.10;99.90;;;;;;5060524;28;20450;-77
2023/09/13 06:40:47;;;;;;;26.15;23.65;;;18.20;99.90;;;;;;5060373;28;20438;-76
2023/09/13 06:43:14;;;;;;;24.90;22.48;;;18.20;99.90;;;;;;5061946;28;20435;-77
2023/09/13 06:45:41;;;;;;;28.65;25.85;;;18.20;99.90;;;;;;5062180;28;20432;-76
2023/09/13 06:48:08;;;;;;;25.83;23.30;;;18.20;99.90;;;;;;5062289;28;20422;-77
2023/09/13 06:50:35;;;;;;;25.77;23.17;;;18.20;99.90;;;;;;5060699;28;20537;-77
2023/09/13 06:53:01;;;;;;;25.95;23.38;;;18.20;99.90;;;;;;5064009;28;20503;-77
2023/09/13 06:55:31;;;;;;;25.48;23.05;;;18.20;99.90;;;;;;5065335;28;20450;-77
2023/09/13 06:57:57;;;;;;;25.00;22.60;;;18.20;99.90;;;;;;5064628;28;20453;-76
2023/09/13 07:00:24;;;;;;;25.73;23.23;;;18.30;99.90;;;;;;5066503;28;20706;-77
2023/09/13 07:02:51;;;;;;;25.13;22.52;;;18.30;99.90;;;;;;5061025;28;20466;-77
2023/09/13 07:05:18;;;;;;;24.80;22.50;;;18.30;99.90;;;;;;5062731;28;21016;-77
2023/09/13 07:07:44;;;;;;;24.10;21.70;;;18.30;99.90;;;;;;5065349;28;20737;-76
2023/09/13 07:10:12;;;;;;;24.52;22.23;;;18.30;99.90;;;;;;5066708;28;20431;-77
2023/09/13 07:12:40;;;;;;;25.20;22.70;;;18.30;99.90;;;;;;5065921;28;20427;-77
2023/09/13 07:15:08;;;;;;;24.70;22.40;;;18.20;99.90;;;;;;5060617;28;20420;-76
2023/09/13 07:17:34;;;;;;;24.50;21.90;;;18.20;99.90;;;;;;5057825;28;20427;-76
2023/09/13 07:20:02;;;;;;;25.58;23.10;;;18.20;99.90;;;;;;5056649;28;20421;-76
2023/09/13 07:22:29;;;;;;;26.88;24.17;;;18.20;99.90;;;;;;5048178;28;20421;-77
2023/09/13 07:24:55;;;;;;;26.67;23.80;;;18.10;99.90;;;;;;5055234;28;20436;-76
2023/09/13 07:27:22;;;;;;;26.85;23.95;;;18.10;99.90;;;;;;5053426;28;20447;-76
2023/09/13 07:29:50;;;;;;;27.40;24.65;;;18.00;99.90;;;;;;5048751;28;20444;-76
2023/09/13 07:32:18;;;;;;;26.52;23.90;;;18.00;99.90;;;;;;5050433;28;20605;-76
2023/09/13 07:34:45;;;;;;;28.20;24.73;;;18.00;99.90;;;;;;5051124;28;20521;-77
2023/09/13 07:37:11;;;;;;;25.10;22.58;;;18.00;99.90;;;;;;5049528;28;20485;-77
2023/09/13 07:39:39;;;;;;;24.73;22.08;;;18.10;99.90;;;;;;5047028;28;20429;-77
2023/09/13 07:42:06;;;;;;;26.83;24.13;;;18.10;99.90;;;;;;5048376;28;20890;-77
2023/09/13 07:44:32;;;;;;;25.10;22.70;;;18.00;99.90;;;;;;5060834;28;20510;-77
2023/09/13 07:47:01;;;;;;;24.80;22.30;;;18.10;99.90;;;;;;5048228;28;20437;-77
2023/09/13 07:49:27;;;;;;;24.80;22.30;;;18.10;99.90;;;;;;5046035;28;20457;-77
2023/09/13 07:51:54;;;;;;;24.98;22.48;;;18.20;99.90;;;;;;5048431;28;20503;-77
2023/09/13 07:54:21;;;;;;;22.95;20.77;;;18.20;99.90;;;;;;5052365;28;20514;-77
2023/09/13 07:56:47;;;;;;;23.45;21.23;;;18.30;99.90;;;;;;5054965;28;20437;-77
2023/09/13 07:59:17;;;;;;;24.23;21.73;;;18.30;99.90;;;;;;5049567;28;20515;-77
2023/09/13 08:01:44;;;;;;;23.48;21.27;;;18.40;99.90;;;;;;5046189;28;20544;-77
2023/09/13 08:04:12;;;;;;;23.05;20.80;;;18.50;99.90;;;;;;5058989;28;20411;-77
2023/09/13 08:06:41;;;;;;;21.90;19.90;;;18.60;99.90;;;;;;5047026;28;20924;-77
2023/09/13 08:09:08;;;;;;;22.33;20.20;;;18.70;99.90;;;;;;5046352;28;20428;-77
2023/09/13 08:11:34;;;;;;;22.40;20.20;;;18.70;99.90;;;;;;5046199;28;20879;-77
2023/09/13 08:14:01;;;;;;;22.27;20.10;;;18.80;99.90;;;;;;5054200;28;20444;-77
2023/09/13 08:16:28;;;;;;;20.90;18.90;;;18.90;99.90;;;;;;5067620;22;22017;-70
2023/09/13 08:18:55;;;;;;;19.17;17.45;;;19.00;99.90;;;;;;5031460;28;20431;-71
2023/09/13 08:21:23;;;;;;;19.97;18.17;;;19.10;99.90;;;;;;5040841;28;20422;-72
2023/09/13 08:23:50;;;;;;;19.00;17.30;;;19.30;99.90;;;;;;5041696;28;20434;-73
2023/09/13 08:26:17;;;;;;;19.00;17.30;;;19.40;99.90;;;;;;5045920;28;20418;-74
2023/09/13 08:28:44;;;;;;;19.40;17.47;;;19.50;99.90;;;;;;5042840;28;20429;-73
2023/09/13 08:31:11;;;;;;;18.83;17.08;;;19.60;99.90;;;;;;5048357;28;20441;-74
2023/09/13 08:33:38;;;;;;;18.48;16.88;;;19.50;99.90;;;;;;5037789;28;20444;-74
2023/09/13 08:36:05;;;;;;;17.53;16.00;;;19.50;99.90;;;;;;5043495;28;20442;-72
2023/09/13 08:38:33;;;;;;;19.93;18.07;;;19.40;99.90;;;;;;5041760;28;20923;-71
2023/09/13 08:40:59;;;;;;;16.77;15.27;;;19.30;99.90;;;;;;5047336;28;20423;-72
2023/09/13 08:43:27;;;;;;;18.35;16.55;;;19.30;99.90;;;;;;5054207;28;20439;-71
2023/09/13 08:45:55;;;;;;;18.20;16.50;;;19.30;99.90;;;;;;5040613;28;20436;-72
2023/09/13 08:48:22;;;;;;;16.70;15.20;;;19.30;99.90;;;;;;5048465;28;20424;-73
2023/09/13 08:50:49;;;;;;;17.40;15.93;;;19.40;99.90;;;;;;5050352;28;20433;-74
2023/09/13 08:53:17;;;;;;;17.50;15.77;;;19.30;99.90;;;;;;5036479;28;20578;-73
2023/09/13 08:55:47;;;;;;;17.10;15.40;;;19.30;99.90;;;;;;5041416;28;20429;-73
2023/09/13 08:58:13;;;;;;;17.52;15.75;;;19.30;99.90;;;;;;5042828;28;20438;-73
2023/09/13 09:00:43;;;;;;;18.08;16.38;;;19.40;99.90;;;;;;5047780;28;20437;-72
2023/09/13 09:03:13;;;;;;;18.13;16.33;;;19.40;99.90;;;;;;5045670;28;20437;-72
2023/09/13 09:05:42;;;;;;;17.20;15.65;;;19.50;99.90;;;;;;5040716;28;20607;-73
2023/09/13 09:08:10;;;;;;;17.42;15.73;;;19.50;99.90;;;;;;5042155;28;20436;-71
2023/09/13 09:10:37;;;;;;;16.70;15.10;;;19.60;99.90;;;;;;5042298;28;20409;-71
2023/09/13 09:13:06;;;;;;;14.48;13.02;;;19.70;99.90;;;;;;5043573;28;20441;-70
2023/09/13 09:15:36;;;;;;;16.03;14.50;;;19.70;99.90;;;;;;5036825;28;20448;-70
2023/09/13 09:18:07;;;;;;;16.33;14.82;;;19.80;99.90;;;;;;5037500;28;20955;-72
2023/09/13 09:20:34;;;;;;;15.63;14.25;;;20.00;99.90;;;;;;5045379;28;20437;-72
2023/09/13 09:23:01;;;;;;;15.52;13.60;;;20.00;99.90;;;;;;5043639;28;20448;-72
2023/09/13 09:25:31;;;;;;;14.77;13.40;;;20.00;99.90;;;;;;5042792;28;20457;-73
2023/09/13 09:27:57;;;;;;;13.77;12.38;;;20.10;99.90;;;;;;5039219;28;22879;-71
2023/09/13 09:30:32;;;;;;;14.43;12.93;;;20.10;99.90;;;;;;5048826;28;20410;-71
2023/09/13 09:33:02;;;;;;;13.85;12.55;;;20.30;99.90;;;;;;5034643;28;20427;-70
2023/09/13 09:35:29;;;;;;;14.30;12.25;;;20.30;99.90;;;;;;5033404;28;20813;-71
2023/09/13 09:37:56;;;;;;;14.00;12.50;;;20.40;99.90;;;;;;5045700;28;20441;-71
2023/09/13 09:40:23;;;;;;;13.68;12.18;;;20.40;99.90;;;;;;5045848;28;20472;-72
2023/09/13 09:42:54;;;;;;;13.00;11.70;;;20.50;99.90;;;;;;5044640;28;20429;-70
2023/09/13 09:45:21;;;;;;;12.93;10.90;;;20.70;99.90;;;;;;5037239;28;20490;-72
2023/09/13 09:47:50;;;;;;;12.20;11.10;;;20.70;99.90;;;;;;5043704;28;20433;-70
2023/09/13 09:50:17;;;;;;;11.50;10.40;;;20.90;99.90;;;;;;5048391;28;20931;-71
2023/09/13 09:52:49;;;;;;;11.35;10.25;;;21.00;99.70;;;;;;5049509;28;20429;-72
2023/09/13 09:55:21;;;;;;;11.80;10.70;;;21.00;99.70;;;;;;5047768;28;20946;-71
2023/09/13 09:57:49;;;;;;;11.88;10.75;;;21.10;98.60;;;;;;5039693;28;20894;-72
2023/09/13 10:00:16;;;;;;;11.05;10.05;;;21.10;98.70;;;;;;5034109;28;20411;-72
2023/09/13 10:02:44;;;;;;;11.30;10.20;;;21.20;98.60;;;;;;5039693;28;20456;-73
2023/09/13 10:05:16;;;;;;;11.00;10.00;;;21.30;97.70;;;;;;5044725;28;20919;-72
2023/09/13 10:07:50;;;;;;;10.57;9.57;;;21.40;98.40;;;;;;5038227;28;20434;-71
2023/09/13 10:10:29;;;;;;;11.18;10.13;;;21.50;97.80;;;;;;5040874;28;20531;-71
2023/09/13 10:12:56;;;;;;;12.55;11.35;;;21.50;96.80;;;;;;5041461;28;21043;-73
2023/09/13 10:15:24;;;;;;;10.83;9.80;;;21.50;95.90;;;;;;5045158;28;20432;-72
2023/09/13 10:17:51;;;;;;;10.67;9.57;;;21.50;96.60;;;;;;5054868;28;20420;-71
2023/09/13 10:20:21;;;;;;;11.43;10.32;;;21.50;95.10;;;;;;5046205;28;20819;-71
2023/09/13 10:22:49;;;;;;;11.30;10.20;;;21.40;95.80;;;;;;5048001;28;20440;-72
2023/09/13 10:25:19;;;;;;;11.30;10.30;;;21.30;96.20;;;;;;5047122;28;20789;-72
2023/09/13 10:27:50;;;;;;;11.20;10.10;;;21.10;97.10;;;;;;5046592;28;20485;-73
2023/09/13 10:30:21;;;;;;;9.20;8.40;;;21.10;97.60;;;;;;5044078;28;20437;-72
2023/09/13 10:32:53;;;;;;;6.90;6.18;;;21.20;96.20;;;;;;5040190;28;20903;-73
2023/09/13 10:35:22;;;;;;;7.07;6.38;;;21.30;95.70;;;;;;5043308;28;20426;-72
2023/09/13 10:37:56;;;;;;;6.70;6.10;;;21.40;94.30;;;;;;5048445;28;20792;-72
2023/09/13 10:40:27;;;;;;;7.20;6.50;;;21.40;94.20;;;;;;5044104;28;20415;-71
2023/09/13 10:42:55;;;;;;;6.90;6.28;;;21.50;94.30;;;;;;5063008;28;20507;-71
2023/09/13 10:45:22;;;;;;;8.07;7.20;;;21.60;94.80;;;;;;5059499;28;20417;-72
2023/09/13 10:47:50;;;;;;;7.20;6.50;;;21.70;94.30;;;;;;5057114;28;20429;-72
2023/09/13 10:50:18;;;;;;;7.43;6.72;;;21.90;93.20;;;;;;5049454;28;20414;-73
2023/09/13 10:52:49;;;;;;;6.83;6.23;;;21.90;92.10;;;;;;5047686;28;20460;-74
2023/09/13 10:55:16;;;;;;;6.82;6.13;;;21.90;92.10;;;;;;5046748;28;20425;-73
2023/09/13 10:57:44;;;;;;;6.53;5.93;;;21.90;92.70;;;;;;5047758;28;20433;-72
2023/09/13 11:00:15;;;;;;;6.70;6.10;;;22.00;92.90;;;;;;5042248;28;20406;-73
2023/09/13 11:02:43;;;;;;;6.70;6.10;;;22.10;92.50;;;;;;5047265;28;20937;-69
2023/09/13 11:05:13;;;;;;;75.68;57.67;;;22.20;92.40;;;;;;5040438;28;20441;-71
2023/09/13 11:07:42;;;;;;;25.67;21.85;;;22.30;92.70;;;;;;5044144;28;20433;-68
2023/09/13 11:10:14;;;;;;;30.25;27.02;;;22.50;92.10;;;;;;5043499;28;20893;-69
2023/09/13 11:12:43;;;;;;;30.23;27.17;;;22.60;90.90;;;;;;5046373;28;20437;-69
2023/09/13 11:15:13;;;;;;;17.40;15.57;;;22.80;91.50;;;;;;5038609;28;20482;-70
2023/09/13 11:17:41;;;;;;;20.48;18.35;;;23.00;91.10;;;;;;5047247;28;20424;-69
2023/09/13 11:20:33;;;;;;;35.63;31.77;;;23.20;90.70;;;;;;5037470;28;20497;-72
2023/09/13 11:23:08;;;;;;;8.43;7.57;;;23.60;88.10;;;;;;5044962;28;20436;-71
2023/09/13 11:25:38;;;;;;;6.72;5.55;;;23.90;86.20;;;;;;5040081;28;20958;-72
2023/09/13 11:28:08;;;;;;;8.87;7.97;;;24.10;83.20;;;;;;5044337;28;20500;-71
2023/09/13 11:30:49;;;;;;;6.70;6.10;;;24.10;83.10;;;;;;5045527;28;20444;-70
2023/09/13 11:33:16;;;;;;;6.00;5.20;;;23.90;82.30;;;;;;5045552;28;20458;-69
2023/09/13 11:35:43;;;;;;;7.50;5.80;;;23.60;83.50;;;;;;5041919;28;20425;-71
2023/09/13 11:38:12;;;;;;;6.55;5.68;;;23.40;84.30;;;;;;5037838;28;20425;-69
2023/09/13 11:40:41;;;;;;;5.70;5.10;;;23.40;85.70;;;;;;5037218;28;20472;-71
2023/09/13 11:43:11;;;;;;;5.57;5.07;;;23.50;84.10;;;;;;5046215;28;20427;-71
2023/09/13 11:45:39;;;;;;;5.80;4.90;;;23.70;84.00;;;;;;5041818;28;20943;-68
2023/09/13 11:48:08;;;;;;;5.82;4.35;;;23.90;81.30;;;;;;5049623;28;20444;-71
2023/09/13 11:50:43;;;;;;;5.13;4.63;;;24.10;80.20;;;;;;5054860;28;20504;-71
2023/09/13 11:53:13;;;;;;;4.73;4.23;;;24.20;78.60;;;;;;5042900;28;20445;-71
2023/09/13 11:55:44;;;;;;;5.70;5.20;;;24.10;80.10;;;;;;5047576;28;20457;-71
2023/09/13 11:58:16;;;;;;;5.30;4.60;;;23.90;81.00;;;;;;5045689;28;20421;-72
2023/09/13 12:00:43;;;;;;;5.40;4.30;;;23.70;82.40;;;;;;5040576;28;20446;-69
2023/09/13 12:03:10;;;;;;;5.00;4.50;;;23.40;82.40;;;;;;5049780;28;20621;-69
2023/09/13 12:05:39;;;;;;;5.45;4.95;;;23.20;83.50;;;;;;5041146;28;20423;-68
2023/09/13 12:08:20;;;;;;;3.92;3.63;;;23.10;83.10;;;;;;5045002;28;20433;-69
2023/09/13 12:10:50;;;;;;;5.10;4.60;;;23.00;81.80;;;;;;5043146;28;20425;-69
2023/09/13 12:13:17;;;;;;;4.55;4.15;;;22.90;82.50;;;;;;5041928;28;20516;-67
2023/09/13 12:16:02;;;;;;;4.80;4.40;;;23.00;84.40;;;;;;5040952;28;20440;-68
2023/09/13 12:18:31;;;;;;;4.60;4.10;;;23.20;83.60;;;;;;5045832;28;20459;-71
2023/09/13 12:20:58;;;;;;;3.30;3.00;;;23.60;83.30;;;;;;5038936;28;20428;-70
2023/09/13 12:23:25;;;;;;;3.00;2.70;;;23.70;84.70;;;;;;5035024;28;20411;-69
2023/09/13 12:25:57;;;;;;;3.00;2.28;;;23.60;86.40;;;;;;5046587;28;20441;-69
2023/09/13 12:28:28;;;;;;;2.08;1.88;;;23.40;86.80;;;;;;5046094;28;20960;-68
2023/09/13 12:30:55;;;;;;;2.27;2.07;;;23.10;88.90;;;;;;5045800;28;20437;-70
2023/09/13 12:33:23;;;;;;;1.90;1.70;;;22.90;90.60;;;;;;5043950;28;20430;-67
2023/09/13 12:35:51;;;;;;;3.28;1.80;;;22.70;91.00;;;;;;5047895;28;20433;-70